createdAt,value
2023-08-10T00:00:48.211Z,100242.91
2023-08-10T00:03:14.958Z,100241.34
2023-08-10T00:05:41.847Z,100243.25
2023-08-10T00:08:08.383Z,100242.53
2023-08-10T00:10:34.882Z,100241.78
2023-08-10T00:13:01.393Z,100247.25
2023-08-10T00:15:27.949Z,100250.13
2023-08-10T00:17:54.643Z,100255.56
2023-08-10T00:20:21.305Z,100248.53
2023-08-10T00:22:47.882Z,100246.00
2023-08-10T00:25:14.500Z,100256.75
2023-08-10T00:27:41.052Z,100254.19
2023-08-10T00:30:08.704Z,100250.81
2023-08-10T00:32:35.284Z,100251.75
2023-08-10T00:35:01.804Z,100246.59
2023-08-10T00:37:28.344Z,100251.16
2023-08-10T00:39:54.872Z,100247.63
2023-08-10T00:42:21.350Z,100251.38
2023-08-10T00:44:47.820Z,100252.34
2023-08-10T00:47:15.715Z,100257.75
2023-08-10T00:49:42.276Z,100261.28
2023-08-10T00:52:08.825Z,100259.59
2023-08-10T00:54:35.449Z,100257.16
2023-08-10T00:57:06.831Z,100261.00
2023-08-10T00:59:34.524Z,100260.13
2023-08-10T01:02:01.110Z,100260.28
2023-08-10T01:04:27.692Z,100258.56
2023-08-10T01:07:03.394Z,100257.94
2023-08-10T01:09:48.296Z,100261.47
2023-08-10T01:12:33.088Z,100260.50
2023-08-10T01:15:16.905Z,100257.94
2023-08-10T01:17:53.148Z,100264.84
2023-08-10T01:20:24.990Z,100263.16
2023-08-10T01:23:18.501Z,100260.72
2023-08-10T01:25:45.099Z,100257.94
2023-08-10T01:28:16.121Z,100256.66
2023-08-10T01:30:44.748Z,100265.81
2023-08-10T01:33:12.056Z,100259.75
2023-08-10T01:35:38.736Z,100261.56
2023-08-10T01:38:05.988Z,100266.03
2023-08-10T01:40:33.549Z,100262.66
2023-08-10T01:43:00.206Z,100263.56
2023-08-10T01:45:26.971Z,100271.53
2023-08-10T01:47:58.665Z,100270.81
2023-08-10T01:50:27.637Z,100267.31
2023-08-10T01:52:57.827Z,100266.47
2023-08-10T01:55:24.619Z,100268.28
2023-08-10T01:57:51.441Z,100261.28
2023-08-10T02:00:18.092Z,100267.56
2023-08-10T02:02:44.878Z,100268.50
2023-08-10T02:05:13.031Z,100271.25
2023-08-10T02:07:39.718Z,100279.22
2023-08-10T02:10:07.003Z,100272.13
2023-08-10T02:12:33.579Z,100287.19
2023-08-10T02:15:00.737Z,100287.19
2023-08-10T02:17:30.166Z,100280.94
2023-08-10T02:19:57.608Z,100280.84
2023-08-10T02:22:24.112Z,100273.59
2023-08-10T02:24:50.576Z,100276.88
2023-08-10T02:27:17.100Z,100277.63
2023-08-10T02:29:43.580Z,100280.88
2023-08-10T02:32:10.108Z,100276.31
2023-08-10T02:34:36.571Z,100277.78
2023-08-10T02:37:03.172Z,100281.06
2023-08-10T02:39:30.127Z,100278.28
2023-08-10T02:41:56.765Z,100278.06
2023-08-10T02:44:23.270Z,100279.66
2023-08-10T02:46:49.795Z,100271.53
2023-08-10T02:49:16.655Z,100275.06
2023-08-10T02:51:43.184Z,100281.25
2023-08-10T02:54:09.630Z,100272.41
2023-08-10T02:56:36.143Z,100276.88
2023-08-10T02:59:02.612Z,100278.69
2023-08-10T03:01:29.256Z,100279.66
2023-08-10T03:03:55.826Z,100275.28
2023-08-10T03:06:22.276Z,100281.56
2023-08-10T03:08:48.790Z,100278.06
2023-08-10T03:11:15.326Z,100289.66
2023-08-10T03:13:41.884Z,100291.47
2023-08-10T03:16:08.505Z,100290.63
2023-08-10T03:18:35.051Z,100285.41
2023-08-10T03:21:01.799Z,100283.63
2023-08-10T03:23:28.347Z,100287.25
2023-08-10T03:25:54.846Z,100291.69
2023-08-10T03:28:22.095Z,100291.69
2023-08-10T03:30:48.718Z,100297.88
2023-08-10T03:33:15.289Z,100297.97
2023-08-10T03:35:41.812Z,100301.56
2023-08-10T03:38:08.388Z,100302.53
2023-08-10T03:40:34.961Z,100310.75
2023-08-10T03:43:01.500Z,100302.03
2023-08-10T03:45:28.014Z,100298.66
2023-08-10T03:47:55.338Z,100305.88
2023-08-10T03:50:22.033Z,100305.16
2023-08-10T03:52:48.619Z,100312.38
2023-08-10T03:55:15.847Z,100308.97
2023-08-10T03:57:42.878Z,100307.25
2023-08-10T04:00:11.284Z,100303.66
2023-08-10T04:02:37.903Z,100302.91
2023-08-10T04:05:07.588Z,100302.81
2023-08-10T04:07:34.661Z,100309.81
2023-08-10T04:10:02.078Z,100311.63
2023-08-10T04:12:28.918Z,100311.53
2023-08-10T04:14:55.474Z,100315.03
2023-08-10T04:17:21.939Z,100321.09
2023-08-10T04:19:48.721Z,100313.13
2023-08-10T04:22:15.375Z,100312.97
2023-08-10T04:24:42.181Z,100311.19
2023-08-10T04:27:08.756Z,100317.25
2023-08-10T04:29:35.347Z,100312.75
2023-08-10T04:32:02.264Z,100313.63
2023-08-10T04:34:29.074Z,100313.53
2023-08-10T04:36:55.636Z,100306.38
2023-08-10T04:39:22.173Z,100311.69
2023-08-10T04:41:48.650Z,100312.56
2023-08-10T04:44:15.206Z,100321.50
2023-08-10T04:46:41.742Z,100318.84
2023-08-10T04:49:08.272Z,100319.66
2023-08-10T04:51:34.767Z,100312.44
2023-08-10T04:54:01.267Z,100318.47
2023-08-10T04:56:27.746Z,100320.06
2023-08-10T04:58:54.181Z,100313.56
2023-08-10T05:01:20.882Z,100321.22
2023-08-10T05:03:47.898Z,100317.38
2023-08-10T05:06:14.464Z,100324.06
2023-08-10T05:08:40.966Z,100322.72
2023-08-10T05:11:07.423Z,100326.75
2023-08-10T05:13:34.398Z,100325.44
2023-08-10T05:16:01.119Z,100332.00
2023-08-10T05:18:27.713Z,100336.03
2023-08-10T05:20:54.225Z,100340.97
2023-08-10T05:23:21.015Z,100342.47
2023-08-10T05:25:48.024Z,100343.84
2023-08-10T05:28:14.482Z,100332.84
2023-08-10T05:30:41.004Z,100338.78
2023-08-10T05:33:07.745Z,100343.75
2023-08-10T05:35:34.219Z,100331.06
2023-08-10T05:38:00.770Z,100336.13
2023-08-10T05:40:27.449Z,100332.41
2023-08-10T05:42:54.207Z,100332.16
2023-08-10T05:45:20.878Z,100334.59
2023-08-10T05:47:47.630Z,100331.72
2023-08-10T05:50:15.229Z,100334.00
2023-08-10T05:52:43.818Z,100336.31
2023-08-10T05:55:10.738Z,100333.28
2023-08-10T05:57:37.294Z,100329.53
2023-08-10T06:00:04.534Z,100333.66
2023-08-10T06:02:31.155Z,100338.75
2023-08-10T06:04:57.646Z,100333.91
2023-08-10T06:07:24.346Z,100341.56
2023-08-10T06:09:50.973Z,100340.34
2023-08-10T06:12:19.124Z,100339.16
2023-08-10T06:14:46.777Z,100345.94
2023-08-10T06:17:13.318Z,100342.88
2023-08-10T06:19:39.795Z,100346.03
2023-08-10T06:22:06.550Z,100348.34
2023-08-10T06:24:33.315Z,100350.66
2023-08-10T06:27:00.694Z,100353.81
2023-08-10T06:29:27.257Z,100357.81
2023-08-10T06:31:54.247Z,100356.59
2023-08-10T06:34:20.838Z,100362.53
2023-08-10T06:36:47.292Z,100365.66
2023-08-10T06:39:13.841Z,100356.44
2023-08-10T06:41:40.424Z,100353.56
2023-08-10T06:44:07.075Z,100357.78
2023-08-10T06:46:33.758Z,100353.28
2023-08-10T06:49:00.727Z,100360.91
2023-08-10T06:51:27.244Z,100361.66
2023-08-10T06:53:53.777Z,100367.69
2023-08-10T06:56:20.342Z,100365.75
2023-08-10T06:59:20.555Z,100370.38
2023-08-10T07:01:47.138Z,100383.06
2023-08-10T07:04:13.601Z,100368.50
2023-08-10T07:06:40.146Z,100371.78
2023-08-10T07:09:07.058Z,100373.25
2023-08-10T07:11:33.569Z,100367.50
2023-08-10T07:14:00.214Z,100369.69
2023-08-10T07:16:26.858Z,100367.50
2023-08-10T07:18:53.362Z,100375.94
2023-08-10T07:21:19.916Z,100369.38
2023-08-10T07:23:47.793Z,100373.38
2023-08-10T07:26:14.436Z,100381.00
2023-08-10T07:28:40.926Z,100377.97
2023-08-10T07:31:07.531Z,100379.41
2023-08-10T07:33:34.073Z,100389.69
2023-08-10T07:36:00.633Z,100373.16
2023-08-10T07:38:27.187Z,100384.06
2023-08-10T07:40:54.919Z,100392.25
2023-08-10T07:43:21.792Z,100388.94
2023-08-10T07:45:48.313Z,100389.81
2023-08-10T07:48:14.944Z,100380.31
2023-08-10T07:50:41.569Z,100391.19
2023-08-10T07:53:08.186Z,100386.88
2023-08-10T07:55:34.686Z,100392.41
2023-08-10T07:58:01.298Z,100390.06
2023-08-10T08:00:27.735Z,100386.88
2023-08-10T08:02:54.260Z,100385.50
2023-08-10T08:05:20.817Z,100383.25
2023-08-10T08:07:47.355Z,100388.31
2023-08-10T08:10:13.840Z,100380.16
2023-08-10T08:12:40.368Z,100378.34
2023-08-10T08:15:07.509Z,100391.72
2023-08-10T08:18:12.656Z,100392.28
2023-08-10T08:20:39.061Z,100396.06
2023-08-10T08:23:05.613Z,100396.22
2023-08-10T08:25:32.208Z,100397.94
2023-08-10T08:27:58.778Z,100398.06
2023-08-10T08:30:27.357Z,100390.88
2023-08-10T08:32:53.974Z,100395.94
2023-08-10T08:35:20.658Z,100394.81
2023-08-10T08:37:47.147Z,100395.25
2023-08-10T08:40:13.676Z,100392.31
2023-08-10T08:42:42.146Z,100399.09
2023-08-10T08:45:09.462Z,100398.84
2023-08-10T08:47:36.270Z,100402.19
2023-08-10T08:50:03.994Z,100406.56
2023-08-10T08:52:31.972Z,100408.84
2023-08-10T08:54:59.046Z,100402.38
2023-08-10T08:57:25.545Z,100411.81
2023-08-10T08:59:52.082Z,100398.03
2023-08-10T09:02:19.763Z,100394.94
2023-08-10T09:04:47.888Z,100397.06
2023-08-10T09:07:14.381Z,100400.88
2023-08-10T09:09:42.511Z,100401.19
2023-08-10T09:12:28.529Z,100396.41
2023-08-10T09:15:05.047Z,100400.06
2023-08-10T09:17:36.743Z,100403.03
2023-08-10T09:20:06.344Z,100394.16
2023-08-10T09:22:38.503Z,100395.56
2023-08-10T09:25:06.635Z,100392.88
2023-08-10T09:27:33.991Z,100389.34
2023-08-10T09:30:03.332Z,100389.34
2023-08-10T09:32:29.899Z,100383.97
2023-08-10T09:34:56.667Z,100377.75
2023-08-10T09:37:25.509Z,100392.13
2023-08-10T09:39:56.450Z,100389.88
2023-08-10T09:42:23.160Z,100379.41
2023-08-10T09:44:52.846Z,100391.66
2023-08-10T09:47:20.692Z,100381.63
2023-08-10T09:49:58.713Z,100389.66
2023-08-10T09:52:26.751Z,100394.31
2023-08-10T09:54:55.651Z,100385.53
2023-08-10T09:57:23.970Z,100393.69
2023-08-10T09:59:52.388Z,100399.69
2023-08-10T10:02:21.444Z,100389.44
2023-08-10T10:04:48.801Z,100389.16
2023-08-10T10:07:20.227Z,100393.44
2023-08-10T10:09:50.652Z,100388.69
2023-08-10T10:12:17.449Z,100389.16
2023-08-10T10:14:46.593Z,100388.63
2023-08-10T10:17:15.739Z,100386.22
2023-08-10T10:19:44.034Z,100397.59
2023-08-10T10:22:12.035Z,100395.69
2023-08-10T10:24:43.008Z,100386.16
2023-08-10T10:27:14.373Z,100385.50
2023-08-10T10:29:50.005Z,100378.50
2023-08-10T10:32:19.875Z,100375.22
2023-08-10T10:34:47.191Z,100378.16
2023-08-10T10:37:15.136Z,100381.63
2023-08-10T10:39:44.426Z,100380.53
2023-08-10T10:42:12.621Z,100380.28
2023-08-10T10:45:09.359Z,100377.63
2023-08-10T10:47:48.329Z,100368.78
2023-08-10T10:50:22.014Z,100366.06
2023-08-10T10:53:02.716Z,100367.41
2023-08-10T10:55:47.330Z,100363.38
2023-08-10T10:58:15.884Z,100359.13
2023-08-10T11:00:47.915Z,100364.69
2023-08-10T11:03:16.413Z,100360.34
2023-08-10T11:05:42.955Z,100355.44
2023-08-10T11:08:09.514Z,100348.84
2023-08-10T11:10:38.251Z,100350.53
2023-08-10T11:13:10.356Z,100348.19
2023-08-10T11:15:40.118Z,100343.78
2023-08-10T11:18:14.142Z,100341.78
2023-08-10T11:20:51.811Z,100343.47
2023-08-10T11:23:18.413Z,100337.72
2023-08-10T11:25:50.426Z,100340.13
2023-08-10T11:28:24.762Z,100339.59
2023-08-10T11:30:51.452Z,100343.94
2023-08-10T11:35:51.443Z,100346.09
2023-08-10T11:38:18.077Z,100349.13
2023-08-10T11:40:44.728Z,100348.94
2023-08-10T11:43:15.916Z,100349.59
2023-08-10T11:45:43.908Z,100351.09
2023-08-10T11:48:12.277Z,100356.69
2023-08-10T11:50:40.091Z,100346.41
2023-08-10T11:53:16.564Z,100357.06
2023-08-10T11:55:50.935Z,100352.00
2023-08-10T11:58:19.098Z,100355.38
2023-08-10T12:00:50.793Z,100354.53
2023-08-10T12:03:26.412Z,100347.94
2023-08-10T12:06:00.858Z,100355.53
2023-08-10T12:08:32.861Z,100359.56
2023-08-10T12:11:07.050Z,100356.88
2023-08-10T12:13:55.669Z,100358.41
2023-08-10T12:16:22.405Z,100351.81
2023-08-10T12:18:49.356Z,100352.31
2023-08-10T12:21:16.143Z,100346.63
2023-08-10T12:23:42.654Z,100350.53
2023-08-10T12:26:09.279Z,100358.63
2023-08-10T12:28:35.793Z,100350.53
2023-08-10T12:31:06.835Z,100339.97
2023-08-10T12:33:34.274Z,100346.88
2023-08-10T12:36:00.939Z,100349.22
2023-08-10T12:38:27.601Z,100344.50
2023-08-10T12:40:54.317Z,100344.88
2023-08-10T12:43:22.215Z,100344.34
2023-08-10T12:45:48.850Z,100346.38
2023-08-10T12:48:15.408Z,100352.09
2023-08-10T12:50:42.063Z,100352.44
2023-08-10T12:53:09.650Z,100340.50
2023-08-10T12:55:37.142Z,100347.22
2023-08-10T12:58:03.796Z,100343.19
2023-08-10T13:00:30.299Z,100350.25
2023-08-10T13:02:57.476Z,100349.91
2023-08-10T13:05:24.148Z,100352.41
2023-08-10T13:07:50.737Z,100344.00
2023-08-10T13:10:17.204Z,100339.75
2023-08-10T13:12:44.887Z,100339.09
2023-08-10T13:15:11.792Z,100344.63
2023-08-10T13:17:39.162Z,100342.97
2023-08-10T13:20:06.286Z,100359.28
2023-08-10T13:22:37.237Z,100356.25
2023-08-10T13:25:10.761Z,100353.72
2023-08-10T13:27:37.419Z,100350.50
2023-08-10T13:30:04.810Z,100352.66
2023-08-10T13:32:31.368Z,100366.47
2023-08-10T13:34:58.016Z,100359.75
2023-08-10T13:37:24.523Z,100353.81
2023-08-10T13:39:51.028Z,100357.69
2023-08-10T13:42:17.584Z,100358.00
2023-08-10T13:44:44.153Z,100349.94
2023-08-10T13:47:11.195Z,100356.16
2023-08-10T13:49:52.941Z,100344.38
2023-08-10T13:52:25.355Z,100346.75
2023-08-10T13:54:52.370Z,100360.41
2023-08-10T13:57:19.270Z,100352.00
2023-08-10T13:59:46.734Z,100351.84
2023-08-10T14:02:13.639Z,100354.38
2023-08-10T14:04:40.249Z,100359.75
2023-08-10T14:07:07.046Z,100360.59
2023-08-10T14:09:33.721Z,100353.38
2023-08-10T14:12:00.355Z,100362.09
2023-08-10T14:14:27.711Z,100354.72
2023-08-10T14:16:55.484Z,100354.22
2023-08-10T14:19:25.383Z,100353.88
2023-08-10T14:21:52.358Z,100355.06
2023-08-10T14:24:18.904Z,100351.03
2023-08-10T14:26:45.444Z,100356.78
2023-08-10T14:29:11.958Z,100355.44
2023-08-10T14:31:38.768Z,100356.81
2023-08-10T14:34:05.417Z,100356.66
2023-08-10T14:36:32.085Z,100358.31
2023-08-10T14:38:58.641Z,100366.41
2023-08-10T14:41:25.220Z,100368.06
2023-08-10T14:43:51.865Z,100363.72
2023-08-10T14:46:18.958Z,100361.88
2023-08-10T14:48:45.515Z,100369.09
2023-08-10T14:51:12.056Z,100371.63
2023-08-10T14:53:38.633Z,100367.91
2023-08-10T14:56:05.428Z,100370.44
2023-08-10T14:58:32.082Z,100366.56
2023-08-10T15:00:58.621Z,100368.94
2023-08-10T15:03:25.156Z,100367.94
2023-08-10T15:05:51.849Z,100368.59
2023-08-10T15:08:18.472Z,100368.41
2023-08-10T15:10:45.390Z,100368.09
2023-08-10T15:13:11.882Z,100365.91
2023-08-10T15:15:38.386Z,100369.13
2023-08-10T15:18:05.228Z,100368.75
2023-08-10T15:20:32.250Z,100366.75
2023-08-10T15:23:09.245Z,100371.81
2023-08-10T15:25:37.332Z,100372.47
2023-08-10T15:28:04.153Z,100372.31
2023-08-10T15:30:30.856Z,100365.91
2023-08-10T15:32:57.757Z,100367.56
2023-08-10T15:35:24.266Z,100361.19
2023-08-10T15:37:50.766Z,100367.25
2023-08-10T15:40:17.766Z,100361.00
2023-08-10T15:42:44.392Z,100364.53
2023-08-10T15:45:11.178Z,100361.00
2023-08-10T15:47:37.825Z,100356.78
2023-08-10T15:50:06.120Z,100359.00
2023-08-10T15:52:33.297Z,100362.19
2023-08-10T15:54:59.820Z,100357.31
2023-08-10T15:57:26.453Z,100364.06
2023-08-10T15:59:53.294Z,100356.81
2023-08-10T16:02:21.465Z,100364.75
2023-08-10T16:04:48.009Z,100361.34
2023-08-10T16:07:14.498Z,100361.47
2023-08-10T16:09:40.988Z,100355.25
2023-08-10T16:12:08.315Z,100354.38
2023-08-10T16:14:35.613Z,100367.84
2023-08-10T16:17:02.472Z,100373.00
2023-08-10T16:19:29.095Z,100363.06
2023-08-10T16:21:55.696Z,100366.41
2023-08-10T16:24:22.250Z,100360.84
2023-08-10T16:26:48.727Z,100362.34
2023-08-10T16:29:15.397Z,100372.75
2023-08-10T16:31:42.155Z,100365.81
2023-08-10T16:34:09.080Z,100368.81
2023-08-10T16:36:35.641Z,100359.38
2023-08-10T16:39:02.593Z,100361.38
2023-08-10T16:41:29.240Z,100355.34
2023-08-10T16:43:56.427Z,100358.19
2023-08-10T16:46:23.482Z,100356.66
2023-08-10T16:48:50.383Z,100353.31
2023-08-10T16:51:17.174Z,100359.66
2023-08-10T16:53:43.784Z,100359.81
2023-08-10T16:56:10.588Z,100362.69
2023-08-10T16:58:37.090Z,100357.47
2023-08-10T17:01:03.689Z,100361.31
2023-08-10T17:03:30.243Z,100355.41
2023-08-10T17:05:56.782Z,100359.09
2023-08-10T17:08:23.298Z,100363.97
2023-08-10T17:10:49.814Z,100359.56
2023-08-10T17:13:16.428Z,100359.75
2023-08-10T17:15:42.952Z,100352.00
2023-08-10T17:18:09.497Z,100353.97
2023-08-10T17:20:36.170Z,100346.25
2023-08-10T17:23:02.669Z,100343.03
2023-08-10T17:25:29.170Z,100349.56
2023-08-10T17:27:56.386Z,100349.91
2023-08-10T17:30:23.353Z,100353.72
2023-08-10T17:32:49.833Z,100354.88
2023-08-10T17:35:16.736Z,100347.16
2023-08-10T17:37:43.347Z,100353.69
2023-08-10T17:40:11.148Z,100348.63
2023-08-10T17:42:38.558Z,100346.25
2023-08-10T17:45:06.570Z,100347.41
2023-08-10T17:47:38.213Z,100350.53
2023-08-10T17:50:07.135Z,100351.88
2023-08-10T17:52:36.646Z,100361.53
2023-08-10T17:55:04.999Z,100353.09
2023-08-10T17:57:31.506Z,100351.03
2023-08-10T18:00:00.515Z,100353.47
2023-08-10T18:02:27.042Z,100344.19
2023-08-10T18:04:53.673Z,100353.75
2023-08-10T18:07:20.412Z,100351.50
2023-08-10T18:09:49.198Z,100349.28
2023-08-10T18:12:15.789Z,100355.78
2023-08-10T18:14:42.364Z,100353.59
2023-08-10T18:17:08.846Z,100350.19
2023-08-10T18:19:35.323Z,100351.34
2023-08-10T18:22:04.108Z,100338.22
2023-08-10T18:24:30.960Z,100342.06
2023-08-10T18:27:09.141Z,100338.31
2023-08-10T18:29:35.677Z,100338.16
2023-08-10T18:32:02.668Z,100338.31
2023-08-10T18:34:32.021Z,100343.78
2023-08-10T18:36:58.648Z,100341.25
2023-08-10T18:39:25.485Z,100338.72
2023-08-10T18:41:52.090Z,100343.41
2023-08-10T18:44:24.800Z,100346.25
2023-08-10T18:46:51.659Z,100338.50
2023-08-10T18:49:18.987Z,100343.56
2023-08-10T18:51:46.939Z,100347.38
2023-08-10T18:54:13.456Z,100348.84
2023-08-10T18:56:40.048Z,100343.75
2023-08-10T18:59:06.490Z,100342.38
2023-08-10T19:01:33.089Z,100353.25
2023-08-10T19:03:59.613Z,100358.06
2023-08-10T19:06:26.180Z,100344.81
2023-08-10T19:08:52.750Z,100345.09
2023-08-10T19:11:19.389Z,100347.09
2023-08-10T19:13:46.006Z,100349.94
2023-08-10T19:16:12.582Z,100352.06
2023-08-10T19:18:39.117Z,100359.41
2023-08-10T19:21:05.867Z,100355.19
2023-08-10T19:23:32.325Z,100361.84
2023-08-10T19:25:58.873Z,100360.16
2023-08-10T19:28:25.839Z,100359.47
2023-08-10T19:30:52.537Z,100349.84
2023-08-10T19:33:19.186Z,100358.22
2023-08-10T19:35:45.775Z,100352.16
2023-08-10T19:38:12.621Z,100351.47
2023-08-10T19:40:39.133Z,100358.78
2023-08-10T19:43:05.627Z,100355.44
2023-08-10T19:45:32.072Z,100353.88
2023-08-10T19:47:58.723Z,100355.03
2023-08-10T19:50:26.867Z,100356.16
2023-08-10T19:52:53.345Z,100352.78
2023-08-10T19:55:19.892Z,100350.25
2023-08-10T19:57:46.522Z,100345.19
2023-08-10T20:00:13.966Z,100344.44
2023-08-10T20:02:40.761Z,100344.72
2023-08-10T20:05:07.861Z,100348.41
2023-08-10T20:07:52.838Z,100349.00
2023-08-10T20:10:33.049Z,100348.00
2023-08-10T20:12:59.658Z,100349.97
2023-08-10T20:15:26.258Z,100352.09
2023-08-10T20:17:52.847Z,100357.59
2023-08-10T20:20:19.936Z,100355.22
2023-08-10T20:22:47.289Z,100350.03
2023-08-10T20:25:16.198Z,100357.47
2023-08-10T20:27:42.816Z,100359.47
2023-08-10T20:30:10.408Z,100357.78
2023-08-10T20:32:37.720Z,100358.06
2023-08-10T20:35:06.143Z,100360.75
2023-08-10T20:37:32.699Z,100361.75
2023-08-10T20:39:59.273Z,100358.34
2023-08-10T20:42:25.766Z,100349.47
2023-08-10T20:44:52.511Z,100357.66
2023-08-10T20:47:18.953Z,100355.13
2023-08-10T20:49:45.439Z,100364.97
2023-08-10T20:52:11.963Z,100356.94
2023-08-10T20:54:38.848Z,100361.47
2023-08-10T20:57:05.636Z,100360.63
2023-08-10T20:59:35.929Z,100361.59
2023-08-10T21:02:03.720Z,100369.78
2023-08-10T21:04:30.291Z,100367.97
2023-08-10T21:06:56.948Z,100368.09
2023-08-10T21:09:24.531Z,100363.56
2023-08-10T21:11:51.040Z,100361.03
2023-08-10T21:14:17.653Z,100361.03
2023-08-10T21:16:44.134Z,100360.34
2023-08-10T21:19:10.727Z,100361.34
2023-08-10T21:21:37.193Z,100363.16
2023-08-10T21:24:06.252Z,100370.50
2023-08-10T21:26:32.728Z,100372.31
2023-08-10T21:28:59.305Z,100372.47
2023-08-10T21:31:25.850Z,100373.44
2023-08-10T21:33:52.463Z,100371.59
2023-08-10T21:36:19.093Z,100373.44
2023-08-10T21:38:45.564Z,100376.13
2023-08-10T21:41:12.125Z,100372.59
2023-08-10T21:43:38.676Z,100375.28
2023-08-10T21:46:06.050Z,100375.28
2023-08-10T21:48:32.794Z,100376.13
2023-08-10T21:50:59.397Z,100366.41
2023-08-10T21:53:25.883Z,100373.44
2023-08-10T21:55:52.463Z,100372.47
2023-08-10T21:58:18.900Z,100369.78
2023-08-10T22:00:45.474Z,100376.00
2023-08-10T22:03:12.361Z,100373.19
2023-08-10T22:05:39.038Z,100375.84
2023-08-10T22:08:06.020Z,100374.00
2023-08-10T22:10:44.960Z,100377.69
2023-08-10T22:13:11.537Z,100377.53
2023-08-10T22:15:38.090Z,100373.88
2023-08-10T22:18:04.994Z,100373.88
2023-08-10T22:20:32.529Z,100369.50
2023-08-10T22:23:05.353Z,100374.16
2023-08-10T22:25:33.608Z,100366.97
2023-08-10T22:28:02.679Z,100363.75
2023-08-10T22:30:29.214Z,100360.34
2023-08-10T22:32:55.947Z,100358.09
2023-08-10T22:35:22.545Z,100355.84
2023-08-10T22:37:49.111Z,100361.59
2023-08-10T22:40:17.462Z,100372.75
2023-08-10T22:42:43.970Z,100373.16
2023-08-10T22:45:12.366Z,100371.84
2023-08-10T22:47:39.938Z,100367.78
2023-08-10T22:50:08.045Z,100372.81
2023-08-10T22:52:34.821Z,100375.94
2023-08-10T22:55:01.544Z,100370.03
2023-08-10T22:57:28.099Z,100370.44
2023-08-10T22:59:55.888Z,100375.22
2023-08-10T23:02:23.373Z,100365.66
2023-08-10T23:04:49.874Z,100376.75
2023-08-10T23:07:16.436Z,100372.53
2023-08-10T23:09:42.922Z,100369.97
2023-08-10T23:12:09.884Z,100362.09
2023-08-10T23:14:36.541Z,100371.97
2023-08-10T23:17:05.017Z,100375.47
2023-08-10T23:19:31.539Z,100373.66
2023-08-10T23:21:58.030Z,100374.47
2023-08-10T23:24:24.536Z,100378.00
2023-08-10T23:26:51.142Z,100368.16
2023-08-10T23:29:17.636Z,100371.53
2023-08-10T23:31:44.430Z,100372.25
2023-08-10T23:34:12.269Z,100358.03
2023-08-10T23:36:38.690Z,100350.84
2023-08-10T23:39:07.651Z,100357.88
2023-08-10T23:41:34.790Z,100356.03
2023-08-10T23:44:01.702Z,100364.06
2023-08-10T23:46:28.187Z,100360.56
2023-08-10T23:48:54.772Z,100356.22
2023-08-10T23:51:21.287Z,100351.00
2023-08-10T23:53:48.608Z,100360.00
2023-08-10T23:56:15.198Z,100361.97
2023-08-10T23:58:41.942Z,100355.75
